Time;durP1;ratioP1;P1;durP2;ratioP2;P2;SDS_P1;SDS_P2;PMS_P1;PMS_P2;Temp;Humidity;BMP_temperature;BMP_pressure;BME280_temperature;BME280_humidity;BME280_pressure;Samples;Min_cycle;Max_cycle;Signal;HPM_P1;HPM_P2
2023/07/12 00:00:38;;;;;;;16.27;10.00;;;24.10;85.70;;;;;;4975363;28;20176;-57
2023/07/12 00:03:04;;;;;;;15.05;8.88;;;24.10;85.70;;;;;;4982410;28;20518;-57
2023/07/12 00:05:29;;;;;;;16.25;9.63;;;24.10;85.80;;;;;;4978867;28;20034;-57
2023/07/12 00:07:56;;;;;;;14.73;10.10;;;24.10;85.80;;;;;;4978838;28;20030;-57
2023/07/12 00:10:25;;;;;;;12.98;9.10;;;24.20;85.70;;;;;;4985540;28;20395;-57
2023/07/12 00:12:51;;;;;;;14.95;9.90;;;24.20;85.60;;;;;;4979643;28;20033;-58
2023/07/12 00:15:23;;;;;;;13.88;10.35;;;24.20;85.70;;;;;;4986519;28;20532;-58
2023/07/12 00:17:50;;;;;;;14.15;9.35;;;24.30;85.50;;;;;;4971669;28;20098;-57
2023/07/12 00:20:26;;;;;;;15.68;10.10;;;24.30;85.50;;;;;;4968965;28;20019;-57
2023/07/12 00:22:52;;;;;;;12.50;9.43;;;24.40;85.60;;;;;;4972574;28;20395;-58
2023/07/12 00:25:19;;;;;;;17.05;9.93;;;24.30;85.60;;;;;;4978477;28;20026;-58
2023/07/12 00:27:45;;;;;;;13.98;9.32;;;24.30;85.80;;;;;;4982278;28;20022;-57
2023/07/12 00:30:12;;;;;;;19.25;9.80;;;24.30;85.80;;;;;;4982708;28;20076;-57
2023/07/12 00:32:39;;;;;;;16.08;10.77;;;24.30;86.10;;;;;;4980990;28;20022;-57
2023/07/12 00:35:04;;;;;;;16.45;10.60;;;24.30;86.00;;;;;;4983614;28;20494;-58
2023/07/12 00:37:30;;;;;;;14.35;10.45;;;24.40;86.00;;;;;;4979097;28;20023;-57
2023/07/12 00:39:56;;;;;;;13.73;10.38;;;24.40;85.90;;;;;;4975593;28;20542;-57
2023/07/12 00:42:31;;;;;;;14.73;10.85;;;24.40;85.90;;;;;;4980475;28;20031;-57
2023/07/12 00:44:58;;;;;;;14.13;10.35;;;24.40;85.90;;;;;;4983903;28;20058;-57
2023/07/12 00:47:24;;;;;;;16.23;11.18;;;24.50;86.10;;;;;;4973658;28;20102;-57
2023/07/12 00:49:51;;;;;;;13.48;10.52;;;24.40;86.20;;;;;;4989759;28;20022;-58
2023/07/12 00:52:19;;;;;;;16.15;10.63;;;24.40;86.20;;;;;;4988054;28;20033;-57
2023/07/12 00:54:58;;;;;;;16.58;10.45;;;24.40;86.20;;;;;;4989300;28;20029;-57
2023/07/12 00:57:25;;;;;;;16.10;11.57;;;24.40;86.40;;;;;;4988708;28;20099;-57
2023/07/12 00:59:56;;;;;;;13.68;9.68;;;24.40;86.50;;;;;;4982488;28;20573;-57
2023/07/12 01:02:25;;;;;;;13.60;10.93;;;24.40;86.80;;;;;;4974203;28;20779;-57
2023/07/12 01:04:55;;;;;;;15.95;10.65;;;24.30;86.80;;;;;;4984072;28;20030;-57
2023/07/12 01:07:23;;;;;;;14.88;11.15;;;24.30;87.10;;;;;;4978245;28;20065;-57
2023/07/12 01:09:48;;;;;;;17.27;11.07;;;24.20;87.30;;;;;;4980995;28;20072;-58
2023/07/12 01:12:14;;;;;;;16.98;11.07;;;24.20;87.40;;;;;;4980924;28;20042;-57
2023/07/12 01:14:41;;;;;;;15.85;11.20;;;24.20;87.60;;;;;;4987869;28;20100;-58
2023/07/12 01:17:07;;;;;;;15.70;11.70;;;24.20;87.70;;;;;;4989427;28;20019;-58
2023/07/12 01:19:35;;;;;;;13.90;10.55;;;24.20;87.80;;;;;;4981125;28;20076;-58
2023/07/12 01:22:02;;;;;;;13.63;10.32;;;24.10;87.90;;;;;;4975526;28;20054;-57
2023/07/12 01:24:31;;;;;;;15.07;11.07;;;24.10;88.00;;;;;;4986830;28;20509;-57
2023/07/12 01:26:59;;;;;;;15.00;10.97;;;24.20;88.00;;;;;;4981381;28;20570;-58
2023/07/12 01:29:26;;;;;;;17.38;11.05;;;24.10;87.80;;;;;;4988993;28;20030;-59
2023/07/12 01:31:52;;;;;;;17.13;10.90;;;24.20;87.80;;;;;;4988977;28;20030;-57
2023/07/12 01:34:18;;;;;;;16.48;10.85;;;24.20;87.80;;;;;;4980490;28;20026;-59
2023/07/12 01:36:44;;;;;;;18.05;12.00;;;24.20;87.80;;;;;;4976996;28;20026;-59
2023/07/12 01:39:10;;;;;;;15.00;11.02;;;24.20;87.80;;;;;;4976205;28;20030;-57
2023/07/12 01:41:36;;;;;;;21.00;12.75;;;24.20;88.80;;;;;;4980250;28;20437;-61
2023/07/12 01:44:02;;;;;;;16.10;12.43;;;23.70;94.00;;;;;;4975303;28;20054;-59
2023/07/12 01:46:28;;;;;;;23.13;12.85;;;22.90;98.40;;;;;;4970440;28;20065;-59
2023/07/12 01:48:54;;;;;;;22.95;13.13;;;22.20;99.90;;;;;;4980578;28;20543;-59
2023/07/12 01:51:20;;;;;;;17.27;14.35;;;21.70;99.90;;;;;;4981497;28;20023;-59
2023/07/12 01:53:47;;;;;;;18.58;14.00;;;21.20;99.90;;;;;;4995785;28;20026;-60
2023/07/12 01:56:14;;;;;;;19.52;14.00;;;20.80;99.90;;;;;;5012935;28;20714;-59
2023/07/12 01:58:39;;;;;;;18.27;13.00;;;20.50;99.90;;;;;;5013640;28;20050;-60
2023/07/12 02:01:05;;;;;;;13.80;12.00;;;20.30;99.90;;;;;;4993947;28;20057;-59
2023/07/12 02:03:31;;;;;;;16.45;12.68;;;20.20;99.90;;;;;;4972614;28;20049;-60
2023/07/12 02:05:57;;;;;;;17.40;12.98;;;20.10;99.90;;;;;;4988136;28;20046;-60
2023/07/12 02:08:24;;;;;;;18.38;12.48;;;20.00;99.90;;;;;;4972064;28;20353;-59
2023/07/12 02:10:49;;;;;;;18.50;12.55;;;19.90;99.90;;;;;;4968805;28;20026;-59
2023/07/12 02:13:16;;;;;;;21.85;12.55;;;19.90;99.90;;;;;;4977417;28;20026;-58
2023/07/12 02:15:42;;;;;;;14.55;11.48;;;19.80;99.90;;;;;;4970806;28;20015;-59
2023/07/12 02:18:12;;;;;;;14.63;12.07;;;19.80;99.90;;;;;;4969628;28;20034;-60
2023/07/12 02:20:37;;;;;;;14.00;11.73;;;19.90;99.90;;;;;;4968895;28;20027;-59
2023/07/12 02:23:03;;;;;;;21.23;11.05;;;19.90;99.90;;;;;;4969613;28;20031;-59
2023/07/12 02:25:28;;;;;;;15.85;11.73;;;19.80;99.90;;;;;;4969166;28;20023;-59
2023/07/12 02:27:54;;;;;;;16.55;10.48;;;19.80;99.90;;;;;;4969343;28;20015;-58
2023/07/12 02:30:25;;;;;;;17.67;11.88;;;19.80;99.90;;;;;;4969187;28;20392;-59
2023/07/12 02:32:52;;;;;;;21.42;12.18;;;19.80;99.90;;;;;;4962080;28;20023;-59
2023/07/12 02:35:19;;;;;;;12.98;10.75;;;19.80;99.90;;;;;;4976906;28;20062;-59
2023/07/12 02:37:45;;;;;;;18.60;11.50;;;19.80;99.90;;;;;;4968724;28;20037;-59
2023/07/12 02:40:12;;;;;;;15.65;11.57;;;19.80;99.90;;;;;;4999905;28;20023;-59
2023/07/12 02:42:38;;;;;;;19.45;11.60;;;19.80;99.90;;;;;;4968072;28;20123;-59
2023/07/12 02:45:05;;;;;;;17.60;11.15;;;19.90;99.90;;;;;;4968679;28;20098;-59
2023/07/12 02:47:31;;;;;;;17.67;11.93;;;19.90;99.90;;;;;;4966235;28;20029;-59
2023/07/12 02:49:56;;;;;;;17.17;11.55;;;19.90;99.90;;;;;;4976416;28;20531;-59
2023/07/12 02:52:22;;;;;;;16.60;11.77;;;19.90;99.90;;;;;;4968218;28;20043;-60
2023/07/12 02:54:47;;;;;;;12.90;10.88;;;19.90;99.90;;;;;;4987892;28;20029;-59
2023/07/12 02:57:14;;;;;;;13.25;10.50;;;19.90;99.90;;;;;;5010474;28;20055;-58
2023/07/12 02:59:40;;;;;;;16.00;10.30;;;19.90;99.90;;;;;;4988462;28;20026;-59
2023/07/12 03:02:07;;;;;;;17.38;11.30;;;19.80;99.90;;;;;;4968066;28;20084;-59
2023/07/12 03:04:33;;;;;;;16.67;12.10;;;19.70;99.90;;;;;;4977541;28;20096;-60
2023/07/12 03:06:59;;;;;;;13.60;11.07;;;19.70;99.90;;;;;;4978069;28;20037;-60
2023/07/12 03:09:25;;;;;;;20.65;11.95;;;19.70;99.90;;;;;;4970673;28;20407;-59
2023/07/12 03:11:50;;;;;;;16.73;10.88;;;19.60;99.90;;;;;;4968003;28;20023;-60
2023/07/12 03:14:20;;;;;;;17.73;11.75;;;19.50;99.90;;;;;;4969492;28;20549;-60
2023/07/12 03:16:46;;;;;;;16.05;12.15;;;19.60;99.90;;;;;;4966408;28;20046;-59
2023/07/12 03:19:13;;;;;;;17.05;11.18;;;19.50;99.90;;;;;;4975886;28;20089;-59
2023/07/12 03:21:39;;;;;;;16.20;11.30;;;19.50;99.90;;;;;;4966122;28;20029;-59
2023/07/12 03:24:05;;;;;;;17.48;11.90;;;19.50;99.90;;;;;;4973680;28;20034;-58
2023/07/12 03:26:31;;;;;;;13.55;11.63;;;19.50;99.90;;;;;;4977789;28;20078;-58
2023/07/12 03:28:58;;;;;;;23.77;12.35;;;19.40;99.90;;;;;;4967858;28;20496;-59
2023/07/12 03:31:25;;;;;;;26.83;12.80;;;19.30;99.90;;;;;;4967430;28;20023;-58
2023/07/12 03:33:50;;;;;;;18.05;13.27;;;19.30;99.90;;;;;;4975443;28;20448;-58
2023/07/12 03:36:16;;;;;;;15.88;12.25;;;19.30;99.90;;;;;;4967772;28;20051;-58
2023/07/12 03:38:42;;;;;;;17.48;13.48;;;19.20;99.90;;;;;;4967831;28;20031;-58
2023/07/12 03:41:10;;;;;;;23.05;12.48;;;19.20;99.90;;;;;;4973563;28;20091;-58
2023/07/12 03:43:37;;;;;;;15.63;12.40;;;19.10;99.90;;;;;;4969071;28;20034;-58
2023/07/12 03:46:04;;;;;;;22.55;13.48;;;19.10;99.90;;;;;;4967679;28;20109;-58
2023/07/12 03:48:29;;;;;;;21.83;13.10;;;19.00;99.90;;;;;;4975481;28;20502;-60
2023/07/12 03:50:55;;;;;;;17.63;12.05;;;19.00;99.90;;;;;;4967324;28;20038;-58
2023/07/12 03:53:22;;;;;;;15.30;12.57;;;18.90;99.90;;;;;;4966525;28;20123;-58
2023/07/12 03:55:48;;;;;;;20.60;12.98;;;19.00;99.90;;;;;;4966619;28;20021;-58
2023/07/12 03:58:19;;;;;;;20.40;13.43;;;18.90;99.90;;;;;;4967544;28;20023;-58
2023/07/12 04:00:47;;;;;;;17.40;13.30;;;18.90;99.90;;;;;;4967818;28;20551;-58
2023/07/12 04:03:13;;;;;;;21.92;13.07;;;18.90;99.90;;;;;;4974298;28;20116;-58
2023/07/12 04:05:40;;;;;;;21.92;12.98;;;19.00;99.90;;;;;;4974413;28;20033;-57
2023/07/12 04:08:07;;;;;;;15.63;12.38;;;19.10;99.90;;;;;;4967219;28;20053;-58
2023/07/12 04:10:33;;;;;;;18.95;12.30;;;19.20;99.90;;;;;;4967565;28;20027;-58
2023/07/12 04:12:59;;;;;;;15.85;11.82;;;19.30;99.90;;;;;;4980685;28;20054;-58
2023/07/12 04:15:25;;;;;;;21.23;12.50;;;19.40;99.90;;;;;;4968957;28;20051;-58
2023/07/12 04:17:51;;;;;;;16.13;10.95;;;19.40;99.90;;;;;;4972060;28;20067;-58
2023/07/12 04:20:17;;;;;;;17.08;10.27;;;19.40;99.90;;;;;;4981538;28;20037;-58
2023/07/12 04:22:42;;;;;;;16.63;11.70;;;19.50;99.90;;;;;;4967391;28;20037;-58
2023/07/12 04:25:09;;;;;;;13.02;10.63;;;19.50;99.90;;;;;;4979296;28;20027;-58
2023/07/12 04:27:37;;;;;;;14.88;10.35;;;19.50;99.90;;;;;;4975602;28;20456;-58
2023/07/12 04:30:04;;;;;;;20.00;10.30;;;19.50;99.90;;;;;;4979519;28;20030;-58
2023/07/12 04:32:29;;;;;;;14.30;9.80;;;19.50;99.90;;;;;;4966826;28;20061;-57
2023/07/12 04:34:55;;;;;;;15.73;10.68;;;19.50;99.90;;;;;;4984578;28;20039;-57
2023/07/12 04:37:21;;;;;;;14.27;9.70;;;19.60;99.90;;;;;;4988966;28;20041;-58
2023/07/12 04:39:47;;;;;;;17.50;10.38;;;19.60;99.90;;;;;;5008858;28;20075;-59
2023/07/12 04:42:12;;;;;;;14.25;10.25;;;19.60;99.90;;;;;;4973935;28;20495;-58
2023/07/12 04:44:38;;;;;;;15.45;9.80;;;19.60;99.90;;;;;;4967169;28;20062;-58
2023/07/12 04:47:05;;;;;;;16.30;10.18;;;19.60;99.90;;;;;;4967279;28;20520;-58
2023/07/12 04:49:30;;;;;;;14.43;8.60;;;19.60;99.90;;;;;;4967576;28;20034;-58
2023/07/12 04:51:57;;;;;;;12.88;8.73;;;19.60;99.90;;;;;;4967176;28;20407;-58
2023/07/12 04:54:22;;;;;;;12.70;8.80;;;19.60;99.90;;;;;;4968150;28;20164;-58
2023/07/12 04:56:48;;;;;;;13.57;8.77;;;19.70;99.90;;;;;;5011371;28;20100;-58
2023/07/12 04:59:15;;;;;;;11.65;8.13;;;19.80;99.90;;;;;;5008975;28;20450;-58
2023/07/12 05:01:40;;;;;;;8.20;6.72;;;20.00;99.90;;;;;;5005384;28;20020;-58
2023/07/12 05:04:06;;;;;;;7.70;6.80;;;20.10;99.90;;;;;;5042581;28;20082;-60
2023/07/12 05:06:32;;;;;;;10.30;6.60;;;20.10;99.90;;;;;;5017332;28;20248;-58
2023/07/12 05:08:58;;;;;;;12.35;6.63;;;20.20;99.90;;;;;;4971632;28;20433;-59
2023/07/12 05:11:24;;;;;;;11.40;5.78;;;20.20;99.90;;;;;;4971919;28;20084;-58
2023/07/12 05:13:49;;;;;;;9.98;6.30;;;20.30;99.90;;;;;;4987058;28;20054;-59
2023/07/12 05:16:15;;;;;;;7.78;5.47;;;20.40;99.90;;;;;;5031771;28;20021;-59
2023/07/12 05:18:40;;;;;;;6.30;5.50;;;20.40;99.90;;;;;;4988063;28;20088;-58
2023/07/12 05:21:06;;;;;;;7.10;5.10;;;20.40;99.90;;;;;;5009132;28;20033;-59
2023/07/12 05:23:31;;;;;;;8.52;4.97;;;20.30;99.90;;;;;;4968465;28;20152;-58
2023/07/12 05:25:57;;;;;;;9.32;5.10;;;20.30;99.90;;;;;;4969653;28;20035;-60
2023/07/12 05:28:23;;;;;;;8.20;4.88;;;20.30;99.90;;;;;;4969702;28;20019;-58
2023/07/12 05:30:48;;;;;;;6.32;5.05;;;20.30;99.90;;;;;;4977590;28;20097;-59
2023/07/12 05:33:14;;;;;;;10.18;5.13;;;20.40;99.90;;;;;;4970407;28;20030;-58
2023/07/12 05:35:40;;;;;;;6.32;4.03;;;20.50;99.90;;;;;;5022960;28;20029;-60
2023/07/12 05:38:06;;;;;;;5.68;4.30;;;20.60;99.90;;;;;;4983188;28;20031;-58
2023/07/12 05:40:32;;;;;;;6.85;3.72;;;20.70;99.90;;;;;;4968065;28;20472;-58
2023/07/12 05:42:58;;;;;;;10.13;4.72;;;20.70;99.90;;;;;;4969373;28;20388;-60
2023/07/12 05:45:25;;;;;;;9.20;4.30;;;20.80;99.90;;;;;;4969431;28;20102;-60
2023/07/12 05:47:50;;;;;;;6.35;3.70;;;20.50;99.90;;;;;;4974538;28;20022;-60
2023/07/12 05:50:18;;;;;;;8.55;4.15;;;20.50;99.90;;;;;;4980085;28;20042;-59
2023/07/12 05:52:44;;;;;;;7.30;4.20;;;20.50;99.90;;;;;;4974500;28;20054;-60
2023/07/12 05:55:11;;;;;;;7.88;4.28;;;20.40;99.90;;;;;;4969022;28;20050;-58
2023/07/12 05:57:37;;;;;;;8.30;4.07;;;20.40;99.90;;;;;;4968354;28;20019;-59
2023/07/12 06:00:04;;;;;;;9.27;4.35;;;20.30;99.90;;;;;;4982694;28;20033;-61
2023/07/12 06:02:29;;;;;;;5.57;3.85;;;20.20;99.90;;;;;;4979578;28;20057;-61
2023/07/12 06:04:55;;;;;;;7.15;3.97;;;20.20;99.90;;;;;;4980724;28;20038;-61
2023/07/12 06:07:21;;;;;;;7.97;4.15;;;20.30;99.90;;;;;;4979569;28;20392;-61
2023/07/12 06:09:46;;;;;;;8.10;4.07;;;20.50;99.90;;;;;;4964537;28;20480;-61
2023/07/12 06:12:12;;;;;;;6.85;3.97;;;20.60;99.90;;;;;;4980144;28;20030;-61
2023/07/12 06:14:37;;;;;;;6.63;3.70;;;20.70;99.90;;;;;;4986299;28;20037;-60
2023/07/12 06:17:05;;;;;;;9.07;3.83;;;20.80;99.90;;;;;;4976935;28;20031;-59
2023/07/12 06:19:30;;;;;;;6.63;3.33;;;20.90;99.90;;;;;;4976877;28;20031;-59
2023/07/12 06:21:56;;;;;;;6.13;3.50;;;20.90;99.90;;;;;;4979136;28;20444;-61
2023/07/12 06:24:22;;;;;;;6.93;3.88;;;20.90;99.90;;;;;;4987968;28;20038;-61
2023/07/12 06:26:47;;;;;;;6.38;3.50;;;20.90;99.90;;;;;;4976346;28;20391;-61
2023/07/12 06:29:13;;;;;;;7.90;3.78;;;20.80;99.90;;;;;;4983397;28;20027;-61
2023/07/12 06:31:41;;;;;;;6.45;3.53;;;20.70;99.90;;;;;;4977446;28;20383;-59
2023/07/12 06:34:08;;;;;;;3.90;3.35;;;20.70;99.90;;;;;;4983124;28;20023;-61
2023/07/12 06:36:34;;;;;;;4.60;2.92;;;20.80;99.90;;;;;;4978436;28;20450;-61
2023/07/12 06:38:59;;;;;;;3.95;2.97;;;20.90;99.90;;;;;;4987930;28;20106;-59
2023/07/12 06:41:25;;;;;;;4.88;3.05;;;20.90;99.90;;;;;;4987416;28;20026;-59
2023/07/12 06:43:50;;;;;;;5.63;3.35;;;20.90;99.90;;;;;;4983944;28;20029;-59
2023/07/12 06:46:16;;;;;;;4.00;3.25;;;20.80;99.90;;;;;;4976266;28;20058;-59
2023/07/12 06:48:42;;;;;;;4.55;3.25;;;20.80;99.90;;;;;;4983866;28;20431;-59
2023/07/12 06:51:08;;;;;;;7.43;3.03;;;20.80;99.90;;;;;;4982043;28;20047;-59
2023/07/12 06:53:33;;;;;;;4.18;3.00;;;20.80;99.90;;;;;;4977820;28;20041;-59
2023/07/12 06:55:59;;;;;;;4.22;2.92;;;20.90;99.90;;;;;;4976303;28;20034;-59
2023/07/12 06:58:25;;;;;;;5.00;2.90;;;21.00;99.90;;;;;;4976577;28;20470;-59
2023/07/12 07:00:50;;;;;;;3.28;2.05;;;21.10;99.90;;;;;;4975366;28;20027;-59
2023/07/12 07:03:16;;;;;;;4.20;1.98;;;21.20;99.90;;;;;;4976170;28;20339;-59
2023/07/12 07:05:44;;;;;;;3.83;2.30;;;21.20;99.90;;;;;;4979044;28;20487;-59
2023/07/12 07:08:12;;;;;;;3.10;1.63;;;21.20;99.90;;;;;;4987406;28;20095;-59
2023/07/12 07:10:37;;;;;;;4.30;1.75;;;21.20;99.90;;;;;;4969521;28;20030;-59
2023/07/12 07:13:03;;;;;;;2.88;1.70;;;21.20;99.90;;;;;;4974246;28;20034;-59
2023/07/12 07:15:29;;;;;;;3.92;1.98;;;21.30;99.90;;;;;;4975754;28;20099;-59
2023/07/12 07:17:55;;;;;;;3.67;1.60;;;21.30;99.90;;;;;;4967991;28;20042;-59
2023/07/12 07:20:21;;;;;;;5.38;1.70;;;21.30;99.90;;;;;;4967567;28;20023;-59
2023/07/12 07:22:46;;;;;;;7.22;2.20;;;21.20;99.90;;;;;;4971030;28;20026;-59
2023/07/12 07:25:12;;;;;;;5.10;1.88;;;21.20;99.90;;;;;;4972873;28;20057;-59
2023/07/12 07:27:38;;;;;;;4.72;2.08;;;21.30;99.90;;;;;;4977882;28;20019;-59
2023/07/12 07:30:04;;;;;;;5.05;1.50;;;21.30;99.90;;;;;;4973540;28;20019;-59
2023/07/12 07:32:30;;;;;;;4.25;1.90;;;21.40;99.90;;;;;;4981511;28;20018;-59
2023/07/12 07:34:55;;;;;;;2.72;2.10;;;21.60;99.90;;;;;;4972739;28;20671;-59
2023/07/12 07:37:21;;;;;;;6.15;1.50;;;21.70;99.90;;;;;;4979182;28;20045;-59
2023/07/12 07:39:46;;;;;;;3.92;1.80;;;21.80;99.90;;;;;;4978745;28;20109;-59
2023/07/12 07:42:12;;;;;;;2.20;1.70;;;21.80;99.90;;;;;;4971712;28;20043;-59
2023/07/12 07:44:37;;;;;;;3.60;1.83;;;21.90;99.90;;;;;;4969728;28;20511;-59
2023/07/12 07:47:03;;;;;;;4.45;1.63;;;22.10;99.90;;;;;;4981419;28;20042;-59
2023/07/12 07:49:29;;;;;;;3.47;1.48;;;22.20;99.90;;;;;;4976350;28;20026;-59
2023/07/12 07:51:54;;;;;;;4.15;1.70;;;22.30;99.90;;;;;;4978229;28;20031;-59
2023/07/12 07:54:20;;;;;;;6.78;1.63;;;22.40;99.90;;;;;;4977251;28;20029;-59
2023/07/12 07:56:48;;;;;;;6.03;1.60;;;22.50;99.90;;;;;;4975570;28;20080;-60
2023/07/12 07:59:14;;;;;;;6.93;4.70;;;22.70;99.90;;;;;;4967707;28;20061;-60
2023/07/12 08:01:40;;;;;;;3.40;2.33;;;22.80;99.90;;;;;;4985671;28;20023;-61
2023/07/12 08:04:05;;;;;;;2.65;1.35;;;23.00;99.90;;;;;;4973610;28;20019;-59
2023/07/12 08:06:33;;;;;;;1.52;1.20;;;23.10;99.90;;;;;;4975717;28;20148;-59
2023/07/12 08:08:58;;;;;;;4.43;1.50;;;23.20;99.90;;;;;;4992286;28;20028;-59
2023/07/12 08:11:24;;;;;;;1.83;1.25;;;23.40;99.80;;;;;;5020164;28;20031;-61
2023/07/12 08:13:50;;;;;;;4.82;1.30;;;23.50;98.20;;;;;;5020290;28;20043;-60
2023/07/12 08:16:15;;;;;;;11.90;1.40;;;23.60;98.40;;;;;;5016347;28;20065;-61
2023/07/12 08:18:41;;;;;;;2.50;1.08;;;23.80;97.10;;;;;;4973180;28;21332;-60
2023/07/12 08:21:07;;;;;;;1.98;1.00;;;24.20;96.70;;;;;;4972392;28;20053;-60
2023/07/12 08:23:32;;;;;;;1.85;1.38;;;25.00;95.50;;;;;;4969715;28;20063;-60
2023/07/12 08:25:58;;;;;;;2.72;1.08;;;25.90;93.20;;;;;;4968486;28;20030;-60
2023/07/12 08:28:23;;;;;;;1.55;1.23;;;26.80;90.60;;;;;;4967698;28;20069;-61
2023/07/12 08:30:49;;;;;;;3.33;1.20;;;27.60;89.10;;;;;;4970030;28;20080;-60
2023/07/12 08:33:15;;;;;;;3.58;1.15;;;28.40;84.00;;;;;;4966727;28;20038;-60
2023/07/12 08:35:41;;;;;;;2.63;1.00;;;29.10;82.60;;;;;;4967027;28;20030;-59
2023/07/12 08:38:07;;;;;;;2.47;1.20;;;29.60;77.30;;;;;;4967831;28;20023;-58
2023/07/12 08:40:38;;;;;;;3.83;1.27;;;29.90;75.30;;;;;;4968304;28;20031;-58
2023/07/12 08:43:11;;;;;;;1.50;1.13;;;30.40;73.70;;;;;;5031022;28;20118;-58
2023/07/12 08:45:36;;;;;;;12.05;1.83;;;31.10;72.40;;;;;;5000340;28;20074;-58
2023/07/12 08:48:06;;;;;;;6.28;1.42;;;31.70;69.20;;;;;;4990032;28;20039;-58
2023/07/12 08:50:44;;;;;;;8.02;1.50;;;32.40;68.00;;;;;;5018543;28;20077;-58
2023/07/12 08:53:19;;;;;;;3.97;1.80;;;33.10;66.10;;;;;;5019721;28;20029;-58
2023/07/12 08:55:45;;;;;;;3.78;1.33;;;33.80;64.90;;;;;;5005067;28;20022;-58
2023/07/12 08:58:25;;;;;;;5.68;1.88;;;33.80;61.30;;;;;;5017881;28;20075;-58
2023/07/12 09:01:01;;;;;;;2.72;1.05;;;33.10;63.40;;;;;;5019192;28;20095;-58
2023/07/12 09:03:26;;;;;;;2.75;1.20;;;34.00;60.00;;;;;;5016938;28;20019;-58
2023/07/12 09:05:52;;;;;;;2.60;0.85;;;34.10;60.10;;;;;;5029197;28;20037;-58
2023/07/12 09:08:30;;;;;;;3.60;1.05;;;33.90;59.60;;;;;;5022691;28;20030;-58
2023/07/12 09:10:57;;;;;;;1.40;1.20;;;34.80;57.90;;;;;;4992172;28;20017;-58
2023/07/12 09:13:38;;;;;;;1.58;0.95;;;35.10;58.70;;;;;;5021491;28;20026;-58
2023/07/12 09:16:21;;;;;;;1.58;0.90;;;34.80;57.40;;;;;;5021441;28;20562;-59
2023/07/12 09:18:51;;;;;;;2.08;1.25;;;33.60;58.00;;;;;;5023835;28;20473;-59
2023/07/12 09:21:22;;;;;;;4.93;1.45;;;32.10;60.20;;;;;;5018096;28;20082;-56
2023/07/12 09:23:48;;;;;;;6.07;1.38;;;30.50;62.90;;;;;;4972505;28;20046;-56
2023/07/12 09:26:25;;;;;;;4.53;1.35;;;30.10;65.40;;;;;;4988000;28;20062;-56
2023/07/12 09:29:03;;;;;;;2.58;0.90;;;30.50;65.90;;;;;;4987786;28;20023;-57
2023/07/12 09:31:30;;;;;;;3.83;0.88;;;31.80;64.00;;;;;;4987516;28;20076;-56
2023/07/12 09:34:00;;;;;;;6.90;1.40;;;31.30;61.60;;;;;;4986692;28;20543;-56
2023/07/12 09:36:26;;;;;;;1.55;1.17;;;30.90;62.40;;;;;;4979324;28;20506;-59
2023/07/12 09:38:53;;;;;;;3.55;1.30;;;30.10;64.00;;;;;;4979123;28;20034;-59
2023/07/12 09:41:23;;;;;;;4.10;1.10;;;29.60;67.00;;;;;;4979894;28;20375;-59
2023/07/12 09:43:57;;;;;;;4.80;1.10;;;30.00;65.70;;;;;;4988617;28;20472;-59
2023/07/12 09:46:31;;;;;;;7.72;1.67;;;29.80;66.60;;;;;;4972487;28;20087;-59
2023/07/12 09:49:12;;;;;;;5.20;1.25;;;28.50;67.90;;;;;;4984097;28;20039;-59
2023/07/12 09:51:52;;;;;;;1.80;1.60;;;27.70;70.40;;;;;;4968837;28;20121;-59
2023/07/12 09:54:51;;;;;;;3.03;1.15;;;27.30;72.80;;;;;;4984488;28;20373;-59
2023/07/12 09:57:35;;;;;;;3.67;1.30;;;28.10;70.10;;;;;;4979088;28;20531;-59
2023/07/12 10:00:37;;;;;;;3.72;1.33;;;28.50;69.20;;;;;;4970852;28;20105;-59
2023/07/12 10:03:19;;;;;;;3.92;0.70;;;28.60;70.00;;;;;;4970641;28;20560;-59
2023/07/12 10:06:02;;;;;;;3.60;1.00;;;29.60;68.30;;;;;;4969012;28;20118;-59
2023/07/12 10:08:46;;;;;;;2.13;1.05;;;29.40;67.80;;;;;;4976677;28;20674;-60
2023/07/12 10:11:37;;;;;;;3.03;1.52;;;28.80;67.80;;;;;;4983452;28;20022;-58
2023/07/12 10:14:08;;;;;;;2.67;1.17;;;28.20;70.30;;;;;;4968232;28;20019;-59
2023/07/12 10:16:40;;;;;;;1.85;0.90;;;27.60;71.00;;;;;;4972164;28;20031;-59
2023/07/12 10:19:19;;;;;;;1.90;1.10;;;26.90;72.90;;;;;;4978854;28;20026;-59
2023/07/12 10:21:45;;;;;;;2.17;1.02;;;26.20;74.10;;;;;;4970109;28;20033;-61
2023/07/12 10:24:15;;;;;;;1.88;1.00;;;25.60;75.30;;;;;;4981258;28;20027;-60
2023/07/12 10:26:42;;;;;;;;;;;25.40;77.30;;;;;;4976917;28;20095;-60
2023/07/12 10:29:15;;;;;;;2.03;1.27;;;25.30;78.00;;;;;;4982662;28;20275;-61
2023/07/12 10:31:49;;;;;;;1.98;1.67;;;25.20;77.70;;;;;;4987608;28;20019;-60
2023/07/12 10:34:27;;;;;;;1.85;1.48;;;25.20;77.30;;;;;;4972028;28;20395;-60
2023/07/12 10:36:55;;;;;;;2.53;1.85;;;25.70;75.00;;;;;;4968618;28;20023;-60
2023/07/12 10:39:24;;;;;;;4.03;1.92;;;25.40;75.20;;;;;;4968638;28;20035;-61
2023/07/12 10:41:54;;;;;;;3.70;2.28;;;25.50;75.70;;;;;;4962443;28;20125;-61
2023/07/12 10:44:29;;;;;;;2.08;1.70;;;26.10;75.20;;;;;;4987693;28;20045;-61
2023/07/12 10:46:58;;;;;;;2.20;2.00;;;25.90;74.70;;;;;;4975221;28;20046;-60
2023/07/12 10:49:52;;;;;;;2.30;2.00;;;26.20;75.50;;;;;;4976433;28;20087;-60
2023/07/12 10:52:26;;;;;;;2.13;1.77;;;26.30;74.00;;;;;;4986763;28;20030;-61
2023/07/12 10:55:04;;;;;;;1.92;1.77;;;28.00;72.50;;;;;;4981890;28;20050;-61
2023/07/12 10:57:51;;;;;;;3.28;1.70;;;28.10;70.20;;;;;;4984038;28;20022;-61
2023/07/12 11:00:16;;;;;;;3.13;1.77;;;29.20;68.10;;;;;;4967942;28;20030;-61
2023/07/12 11:02:57;;;;;;;4.50;1.80;;;29.20;67.40;;;;;;4978093;28;20038;-62
2023/07/12 11:06:04;;;;;;;4.63;1.60;;;29.40;68.20;;;;;;4979241;28;20434;-61
2023/07/12 11:08:32;;;;;;;2.03;1.65;;;30.80;66.80;;;;;;4975523;28;20497;-59
2023/07/12 11:11:07;;;;;;;3.33;1.80;;;31.60;63.80;;;;;;4979993;28;20421;-59
2023/07/12 11:13:35;;;;;;;4.22;1.80;;;30.90;63.70;;;;;;4987160;28;20034;-59
2023/07/12 11:16:05;;;;;;;4.00;1.60;;;30.90;65.10;;;;;;4989245;28;20039;-59
2023/07/12 11:18:37;;;;;;;1.95;1.40;;;31.60;64.30;;;;;;4976469;28;20030;-59
2023/07/12 11:21:05;;;;;;;3.42;1.85;;;31.60;64.60;;;;;;4978681;28;20027;-60
2023/07/12 11:23:48;;;;;;;4.05;1.45;;;31.10;64.10;;;;;;4986864;28;20126;-60
2023/07/12 11:26:34;;;;;;;2.33;1.60;;;32.10;63.70;;;;;;4988045;28;20039;-59
2023/07/12 11:29:23;;;;;;;1.50;1.25;;;32.40;60.00;;;;;;4974011;28;20021;-60
2023/07/12 11:31:59;;;;;;;1.77;1.23;;;32.30;60.90;;;;;;4978587;28;20022;-60
2023/07/12 11:34:25;;;;;;;3.33;1.23;;;32.00;61.70;;;;;;4977564;28;20022;-59
2023/07/12 11:36:55;;;;;;;3.85;1.65;;;31.70;60.90;;;;;;4979615;28;20659;-60
2023/07/12 11:39:23;;;;;;;1.58;1.20;;;31.60;62.00;;;;;;4986704;28;20030;-60
2023/07/12 11:42:01;;;;;;;2.85;1.10;;;31.80;61.40;;;;;;4975352;28;20121;-60
2023/07/12 11:44:26;;;;;;;2.20;1.50;;;31.80;59.70;;;;;;4968841;28;20031;-59
2023/07/12 11:46:53;;;;;;;4.03;1.55;;;32.10;59.50;;;;;;5022020;28;20043;-58
2023/07/12 11:49:28;;;;;;;2.78;1.23;;;32.70;59.10;;;;;;5012229;28;20495;-58
2023/07/12 11:52:11;;;;;;;2.25;1.10;;;33.10;59.60;;;;;;5018831;28;20035;-57
2023/07/12 11:54:40;;;;;;;1.83;1.20;;;32.90;58.90;;;;;;5011578;28;20107;-58
2023/07/12 11:57:10;;;;;;;3.20;1.10;;;33.10;57.80;;;;;;5008537;28;20016;-58
2023/07/12 11:59:41;;;;;;;1.20;1.10;;;32.40;60.90;;;;;;5009040;28;20032;-58
2023/07/12 12:02:18;;;;;;;3.67;1.40;;;31.60;61.70;;;;;;5000622;28;20023;-58
2023/07/12 12:04:49;;;;;;;4.30;1.50;;;30.80;62.80;;;;;;4969460;28;20487;-57
2023/07/12 12:07:23;;;;;;;2.15;1.10;;;30.80;65.00;;;;;;4995645;28;20057;-57
2023/07/12 12:09:50;;;;;;;3.92;1.30;;;30.50;62.60;;;;;;5012129;28;20037;-59
2023/07/12 12:12:21;;;;;;;1.33;1.10;;;29.90;63.60;;;;;;5005546;28;20037;-58
2023/07/12 12:14:49;;;;;;;2.22;1.25;;;29.20;63.70;;;;;;5033406;28;20032;-58
2023/07/12 12:17:22;;;;;;;1.33;1.15;;;28.30;64.00;;;;;;5003163;28;20026;-58
2023/07/12 12:19:48;;;;;;;2.08;1.52;;;28.00;67.50;;;;;;5019528;28;20115;-59
2023/07/12 12:22:17;;;;;;;4.07;1.38;;;28.40;66.10;;;;;;5019969;28;20036;-60
2023/07/12 12:24:54;;;;;;;3.33;1.80;;;28.20;65.30;;;;;;5026050;28;20031;-60
2023/07/12 12:27:22;;;;;;;3.10;1.85;;;28.30;67.40;;;;;;5024995;28;20101;-59
2023/07/12 12:29:51;;;;;;;3.83;1.75;;;28.10;66.50;;;;;;5024522;28;20025;-59
2023/07/12 12:32:19;;;;;;;5.75;2.10;;;28.40;68.20;;;;;;5032967;28;20024;-59
2023/07/12 12:34:51;;;;;;;3.25;1.60;;;28.60;65.60;;;;;;5027698;28;20041;-59
2023/07/12 12:37:25;;;;;;;5.10;1.48;;;28.80;65.00;;;;;;5022610;28;20318;-59
2023/07/12 12:40:25;;;;;;;2.22;1.38;;;28.70;69.10;;;;;;5023850;28;20525;-59
2023/07/12 12:42:52;;;;;;;4.47;1.60;;;28.00;65.20;;;;;;4989467;28;20039;-59
2023/07/12 12:45:17;;;;;;;4.65;2.15;;;28.10;66.00;;;;;;4977187;28;20033;-60
2023/07/12 12:47:43;;;;;;;4.50;1.08;;;28.30;66.20;;;;;;4973361;28;20042;-59